sensor_id;sensor_type;location;lat;lon;timestamp;temperature;humidity
13446;DHT22;6795;51.232;3.764;2023-07-31T00:00:52;16.80;99.90
13446;DHT22;6795;51.232;3.764;2023-07-31T00:04:11;16.80;99.90
13446;DHT22;6795;51.232;3.764;2023-07-31T00:07:32;16.80;99.90
13446;DHT22;6795;51.232;3.764;2023-07-31T00:11:02;16.70;99.90
13446;DHT22;6795;51.232;3.764;2023-07-31T00:14:35;16.80;99.90
13446;DHT22;6795;51.232;3.764;2023-07-31T00:18:19;16.70;99.90
13446;DHT22;6795;51.232;3.764;2023-07-31T00:25:25;16.70;99.90
13446;DHT22;6795;51.232;3.764;2023-07-31T00:28:35;16.70;99.90
13446;DHT22;6795;51.232;3.764;2023-07-31T00:32:03;16.70;99.90
13446;DHT22;6795;51.232;3.764;2023-07-31T00:35:52;16.70;99.90
13446;DHT22;6795;51.232;3.764;2023-07-31T00:47:30;16.70;99.90
13446;DHT22;6795;51.232;3.764;2023-07-31T00:50:49;16.70;99.90
13446;DHT22;6795;51.232;3.764;2023-07-31T00:54:01;16.70;99.90
13446;DHT22;6795;51.232;3.764;2023-07-31T00:57:20;16.70;99.90
13446;DHT22;6795;51.232;3.764;2023-07-31T01:00:15;16.70;99.90
13446;DHT22;6795;51.232;3.764;2023-07-31T01:03:55;16.70;99.90
13446;DHT22;6795;51.232;3.764;2023-07-31T01:07:41;16.70;99.90
13446;DHT22;6795;51.232;3.764;2023-07-31T01:11:05;16.70;99.90
13446;DHT22;6795;51.232;3.764;2023-07-31T01:14:15;16.70;99.90
13446;DHT22;6795;51.232;3.764;2023-07-31T01:17:25;16.70;99.90
13446;DHT22;6795;51.232;3.764;2023-07-31T01:20:53;16.70;99.90
13446;DHT22;6795;51.232;3.764;2023-07-31T01:24:52;16.70;99.90
13446;DHT22;6795;51.232;3.764;2023-07-31T01:28:20;16.70;99.90
13446;DHT22;6795;51.232;3.764;2023-07-31T01:31:34;16.70;99.90
13446;DHT22;6795;51.232;3.764;2023-07-31T01:35:02;16.70;99.90
13446;DHT22;6795;51.232;3.764;2023-07-31T01:38:32;16.60;99.90
13446;DHT22;6795;51.232;3.764;2023-07-31T01:41:49;16.50;99.90
13446;DHT22;6795;51.232;3.764;2023-07-31T01:46:05;16.50;99.90
13446;DHT22;6795;51.232;3.764;2023-07-31T01:49:02;16.50;99.90
13446;DHT22;6795;51.232;3.764;2023-07-31T01:52:21;16.50;99.90
13446;DHT22;6795;51.232;3.764;2023-07-31T01:55:41;16.50;99.90
13446;DHT22;6795;51.232;3.764;2023-07-31T01:59:18;16.50;99.90
13446;DHT22;6795;51.232;3.764;2023-07-31T02:06:07;16.60;99.90
13446;DHT22;6795;51.232;3.764;2023-07-31T02:09:21;16.60;99.90
13446;DHT22;6795;51.232;3.764;2023-07-31T02:12:58;16.60;99.90
13446;DHT22;6795;51.232;3.764;2023-07-31T02:16:22;16.60;99.90
13446;DHT22;6795;51.232;3.764;2023-07-31T02:28:30;16.80;99.90
13446;DHT22;6795;51.232;3.764;2023-07-31T02:32:10;16.80;99.90
13446;DHT22;6795;51.232;3.764;2023-07-31T02:35:47;16.80;99.90
13446;DHT22;6795;51.232;3.764;2023-07-31T02:38:51;16.80;99.90
13446;DHT22;6795;51.232;3.764;2023-07-31T02:42:24;16.90;99.90
13446;DHT22;6795;51.232;3.764;2023-07-31T03:02:18;16.90;99.90
13446;DHT22;6795;51.232;3.764;2023-07-31T03:05:43;17.00;99.90
13446;DHT22;6795;51.232;3.764;2023-07-31T03:09:03;17.00;99.90
13446;DHT22;6795;51.232;3.764;2023-07-31T03:12:15;16.90;99.90
13446;DHT22;6795;51.232;3.764;2023-07-31T03:15:10;16.90;99.90
13446;DHT22;6795;51.232;3.764;2023-07-31T03:18:24;16.90;99.90
13446;DHT22;6795;51.232;3.764;2023-07-31T03:21:28;16.90;99.90
13446;DHT22;6795;51.232;3.764;2023-07-31T03:24:42;17.00;99.90
13446;DHT22;6795;51.232;3.764;2023-07-31T03:28:24;16.80;99.90
13446;DHT22;6795;51.232;3.764;2023-07-31T03:31:53;16.70;99.90
13446;DHT22;6795;51.232;3.764;2023-07-31T03:39:14;16.50;99.90
13446;DHT22;6795;51.232;3.764;2023-07-31T03:43:10;16.40;99.90
13446;DHT22;6795;51.232;3.764;2023-07-31T03:46:16;16.40;99.90
13446;DHT22;6795;51.232;3.764;2023-07-31T03:49:24;16.30;99.90
13446;DHT22;6795;51.232;3.764;2023-07-31T03:53:10;16.30;99.90
13446;DHT22;6795;51.232;3.764;2023-07-31T03:56:43;16.30;99.90
13446;DHT22;6795;51.232;3.764;2023-07-31T04:03:20;16.30;99.90
13446;DHT22;6795;51.232;3.764;2023-07-31T04:07:51;16.30;99.90
13446;DHT22;6795;51.232;3.764;2023-07-31T04:10:28;16.30;99.90
13446;DHT22;6795;51.232;3.764;2023-07-31T04:14:21;16.30;99.90
13446;DHT22;6795;51.232;3.764;2023-07-31T04:17:25;16.30;99.90
13446;DHT22;6795;51.232;3.764;2023-07-31T04:20:35;16.40;99.90
13446;DHT22;6795;51.232;3.764;2023-07-31T04:23:54;16.30;99.90
13446;DHT22;6795;51.232;3.764;2023-07-31T04:27:39;16.40;99.90
13446;DHT22;6795;51.232;3.764;2023-07-31T04:31:12;16.40;99.90
13446;DHT22;6795;51.232;3.764;2023-07-31T04:34:10;16.50;99.90
13446;DHT22;6795;51.232;3.764;2023-07-31T04:37:40;16.50;99.90
13446;DHT22;6795;51.232;3.764;2023-07-31T04:41:01;16.50;99.90
13446;DHT22;6795;51.232;3.764;2023-07-31T04:44:00;16.50;99.90
13446;DHT22;6795;51.232;3.764;2023-07-31T04:54:18;16.60;99.90
13446;DHT22;6795;51.232;3.764;2023-07-31T04:57:52;16.70;99.90
13446;DHT22;6795;51.232;3.764;2023-07-31T05:01:34;16.70;99.90
13446;DHT22;6795;51.232;3.764;2023-07-31T05:04:59;16.70;99.90
13446;DHT22;6795;51.232;3.764;2023-07-31T15:57:50;18.80;99.90
13446;DHT22;6795;51.232;3.764;2023-07-31T16:01:35;18.80;99.90
13446;DHT22;6795;51.232;3.764;2023-07-31T16:04:30;18.70;99.90
13446;DHT22;6795;51.232;3.764;2023-07-31T16:07:58;18.70;99.90
13446;DHT22;6795;51.232;3.764;2023-07-31T16:10:54;18.70;99.90
13446;DHT22;6795;51.232;3.764;2023-07-31T16:14:18;18.70;99.90
13446;DHT22;6795;51.232;3.764;2023-07-31T16:17:19;18.70;99.90
13446;DHT22;6795;51.232;3.764;2023-07-31T16:28:08;18.70;99.90
13446;DHT22;6795;51.232;3.764;2023-07-31T16:31:39;18.70;99.90
13446;DHT22;6795;51.232;3.764;2023-07-31T16:35:23;18.70;99.90
13446;DHT22;6795;51.232;3.764;2023-07-31T16:38:42;18.70;99.90
13446;DHT22;6795;51.232;3.764;2023-07-31T16:42:10;18.70;99.90
13446;DHT22;6795;51.232;3.764;2023-07-31T16:45:38;18.70;99.90
13446;DHT22;6795;51.232;3.764;2023-07-31T16:49:02;18.70;99.90
13446;DHT22;6795;51.232;3.764;2023-07-31T16:51:59;18.60;99.90
13446;DHT22;6795;51.232;3.764;2023-07-31T16:55:16;18.60;99.90
13446;DHT22;6795;51.232;3.764;2023-07-31T16:58:42;18.60;99.90
13446;DHT22;6795;51.232;3.764;2023-07-31T17:01:52;18.60;99.90
13446;DHT22;6795;51.232;3.764;2023-07-31T17:09:25;18.60;99.90
13446;DHT22;6795;51.232;3.764;2023-07-31T17:12:49;18.50;99.90
13446;DHT22;6795;51.232;3.764;2023-07-31T17:16:01;18.50;99.90
13446;DHT22;6795;51.232;3.764;2023-07-31T17:20:56;18.40;99.90
13446;DHT22;6795;51.232;3.764;2023-07-31T17:22:50;18.30;99.90
13446;DHT22;6795;51.232;3.764;2023-07-31T17:30:25;18.30;99.90
13446;DHT22;6795;51.232;3.764;2023-07-31T17:33:13;18.30;99.90
13446;DHT22;6795;51.232;3.764;2023-07-31T17:36:31;18.30;99.90
13446;DHT22;6795;51.232;3.764;2023-07-31T17:39:49;18.30;99.90
13446;DHT22;6795;51.232;3.764;2023-07-31T17:43:47;18.30;99.90
13446;DHT22;6795;51.232;3.764;2023-07-31T17:47:20;18.20;99.90
13446;DHT22;6795;51.232;3.764;2023-07-31T17:50:49;18.20;99.90
13446;DHT22;6795;51.232;3.764;2023-07-31T17:57:15;18.30;99.90
13446;DHT22;6795;51.232;3.764;2023-07-31T18:00:31;18.30;99.90
13446;DHT22;6795;51.232;3.764;2023-07-31T18:03:49;18.30;99.90
13446;DHT22;6795;51.232;3.764;2023-07-31T18:07:39;18.30;99.90
13446;DHT22;6795;51.232;3.764;2023-07-31T18:11:24;18.30;99.90
13446;DHT22;6795;51.232;3.764;2023-07-31T18:14:25;18.30;99.90
13446;DHT22;6795;51.232;3.764;2023-07-31T18:17:32;18.30;99.90
13446;DHT22;6795;51.232;3.764;2023-07-31T18:20:45;18.20;99.90
13446;DHT22;6795;51.232;3.764;2023-07-31T18:24:29;18.10;99.90
13446;DHT22;6795;51.232;3.764;2023-07-31T18:28:00;18.10;99.90
13446;DHT22;6795;51.232;3.764;2023-07-31T18:31:17;18.00;99.90
13446;DHT22;6795;51.232;3.764;2023-07-31T18:34:32;18.00;99.90
13446;DHT22;6795;51.232;3.764;2023-07-31T18:41:43;17.80;99.90
13446;DHT22;6795;51.232;3.764;2023-07-31T18:45:28;17.50;99.90
13446;DHT22;6795;51.232;3.764;2023-07-31T18:49:19;17.20;99.90
13446;DHT22;6795;51.232;3.764;2023-07-31T18:52:31;17.00;99.90
13446;DHT22;6795;51.232;3.764;2023-07-31T18:55:45;16.90;99.90
13446;DHT22;6795;51.232;3.764;2023-07-31T18:59:05;16.80;99.90
13446;DHT22;6795;51.232;3.764;2023-07-31T19:02:37;16.70;99.90
13446;DHT22;6795;51.232;3.764;2023-07-31T19:05:59;16.70;99.90
13446;DHT22;6795;51.232;3.764;2023-07-31T19:09:04;16.70;99.90
13446;DHT22;6795;51.232;3.764;2023-07-31T19:12:14;16.70;99.90
13446;DHT22;6795;51.232;3.764;2023-07-31T19:15:45;16.70;99.90
13446;DHT22;6795;51.232;3.764;2023-07-31T19:18:59;16.70;99.90
13446;DHT22;6795;51.232;3.764;2023-07-31T19:22:26;16.70;99.90
13446;DHT22;6795;51.232;3.764;2023-07-31T19:25:21;16.70;99.90
13446;DHT22;6795;51.232;3.764;2023-07-31T19:28:53;16.60;99.90
13446;DHT22;6795;51.232;3.764;2023-07-31T19:40:32;16.60;99.90
13446;DHT22;6795;51.232;3.764;2023-07-31T19:43:41;16.60;99.90
13446;DHT22;6795;51.232;3.764;2023-07-31T19:46:44;16.60;99.90
13446;DHT22;6795;51.232;3.764;2023-07-31T19:50:00;16.50;99.90
13446;DHT22;6795;51.232;3.764;2023-07-31T19:52:54;16.50;99.90
13446;DHT22;6795;51.232;3.764;2023-07-31T19:56:33;16.50;99.90
13446;DHT22;6795;51.232;3.764;2023-07-31T20:00:13;16.40;99.90
13446;DHT22;6795;51.232;3.764;2023-07-31T20:03:26;16.40;99.90
13446;DHT22;6795;51.232;3.764;2023-07-31T20:06:45;16.40;99.90
13446;DHT22;6795;51.232;3.764;2023-07-31T20:10:03;16.40;99.90
13446;DHT22;6795;51.232;3.764;2023-07-31T20:13:51;16.50;99.90
13446;DHT22;6795;51.232;3.764;2023-07-31T20:16:38;16.60;99.90
13446;DHT22;6795;51.232;3.764;2023-07-31T20:20:08;16.60;99.90
13446;DHT22;6795;51.232;3.764;2023-07-31T20:23:30;16.70;99.90
13446;DHT22;6795;51.232;3.764;2023-07-31T20:26:48;16.70;99.90
13446;DHT22;6795;51.232;3.764;2023-07-31T20:34:04;16.70;99.90
13446;DHT22;6795;51.232;3.764;2023-07-31T20:37:07;16.70;99.90
13446;DHT22;6795;51.232;3.764;2023-07-31T20:40:31;16.80;99.90
13446;DHT22;6795;51.232;3.764;2023-07-31T20:43:34;16.80;99.90
13446;DHT22;6795;51.232;3.764;2023-07-31T20:51:11;16.90;99.90
13446;DHT22;6795;51.232;3.764;2023-07-31T20:54:41;16.90;99.90
13446;DHT22;6795;51.232;3.764;2023-07-31T20:58:22;16.90;99.90
13446;DHT22;6795;51.232;3.764;2023-07-31T21:01:24;17.00;99.90
13446;DHT22;6795;51.232;3.764;2023-07-31T21:05:18;17.00;99.90
13446;DHT22;6795;51.232;3.764;2023-07-31T21:08:38;17.00;99.90
13446;DHT22;6795;51.232;3.764;2023-07-31T21:11:53;17.00;99.90
13446;DHT22;6795;51.232;3.764;2023-07-31T21:15:32;17.10;99.90
13446;DHT22;6795;51.232;3.764;2023-07-31T21:18:43;17.20;99.90
13446;DHT22;6795;51.232;3.764;2023-07-31T21:22:11;17.10;99.90
13446;DHT22;6795;51.232;3.764;2023-07-31T21:29:06;17.20;99.90
13446;DHT22;6795;51.232;3.764;2023-07-31T21:36:23;17.20;99.90
13446;DHT22;6795;51.232;3.764;2023-07-31T21:39:58;17.20;99.90
13446;DHT22;6795;51.232;3.764;2023-07-31T21:43:15;17.20;99.90
13446;DHT22;6795;51.232;3.764;2023-07-31T21:46:59;17.20;99.90
13446;DHT22;6795;51.232;3.764;2023-07-31T21:50:52;17.30;99.90
13446;DHT22;6795;51.232;3.764;2023-07-31T21:54:01;17.30;99.90
13446;DHT22;6795;51.232;3.764;2023-07-31T21:57:27;17.20;99.90
13446;DHT22;6795;51.232;3.764;2023-07-31T22:00:45;17.20;99.90
13446;DHT22;6795;51.232;3.764;2023-07-31T22:05:07;17.20;99.90
13446;DHT22;6795;51.232;3.764;2023-07-31T22:08:13;17.20;99.90
13446;DHT22;6795;51.232;3.764;2023-07-31T22:11:21;17.20;99.90
13446;DHT22;6795;51.232;3.764;2023-07-31T22:14:34;17.20;99.90
13446;DHT22;6795;51.232;3.764;2023-07-31T22:18:00;17.20;99.90
13446;DHT22;6795;51.232;3.764;2023-07-31T22:21:40;17.10;99.90
13446;DHT22;6795;51.232;3.764;2023-07-31T22:24:55;17.00;99.90
13446;DHT22;6795;51.232;3.764;2023-07-31T22:28:25;16.90;99.90
13446;DHT22;6795;51.232;3.764;2023-07-31T22:31:31;16.90;99.90
13446;DHT22;6795;51.232;3.764;2023-07-31T22:34:43;16.80;99.90
13446;DHT22;6795;51.232;3.764;2023-07-31T22:37:43;16.70;99.90
13446;DHT22;6795;51.232;3.764;2023-07-31T22:40:48;16.70;99.90
13446;DHT22;6795;51.232;3.764;2023-07-31T22:43:49;16.50;99.90
13446;DHT22;6795;51.232;3.764;2023-07-31T22:46:56;16.50;99.90
13446;DHT22;6795;51.232;3.764;2023-07-31T22:50:49;16.40;99.90
13446;DHT22;6795;51.232;3.764;2023-07-31T22:54:08;16.30;99.90
13446;DHT22;6795;51.232;3.764;2023-07-31T22:57:22;16.30;99.90
13446;DHT22;6795;51.232;3.764;2023-07-31T23:00:38;16.20;99.90
13446;DHT22;6795;51.232;3.764;2023-07-31T23:04:01;16.30;99.90
13446;DHT22;6795;51.232;3.764;2023-07-31T23:07:25;16.30;99.90
13446;DHT22;6795;51.232;3.764;2023-07-31T23:10:45;16.20;99.90
13446;DHT22;6795;51.232;3.764;2023-07-31T23:13:51;16.20;99.90
13446;DHT22;6795;51.232;3.764;2023-07-31T23:17:35;16.10;99.90
13446;DHT22;6795;51.232;3.764;2023-07-31T23:21:04;16.20;99.90
13446;DHT22;6795;51.232;3.764;2023-07-31T23:24:09;16.10;99.90
13446;DHT22;6795;51.232;3.764;2023-07-31T23:27:50;16.10;99.90
13446;DHT22;6795;51.232;3.764;2023-07-31T23:31:20;16.00;99.90
13446;DHT22;6795;51.232;3.764;2023-07-31T23:34:31;15.90;99.90
13446;DHT22;6795;51.232;3.764;2023-07-31T23:37:46;15.90;99.90
13446;DHT22;6795;51.232;3.764;2023-07-31T23:41:37;15.90;99.90
13446;DHT22;6795;51.232;3.764;2023-07-31T23:53:14;15.80;99.90
13446;DHT22;6795;51.232;3.764;2023-07-31T23:56:27;15.80;99.90
13446;DHT22;6795;51.232;3.764;2023-07-31T23:59:56;15.70;99.90
